createdAt,value
2018-02-21T00:00:17.648Z,3.45
2018-02-21T00:01:06.709Z,3.48
2018-02-21T00:01:55.774Z,3.51
2018-02-21T00:02:44.809Z,3.55
2018-02-21T00:03:33.875Z,3.54
2018-02-21T00:04:22.957Z,3.58
2018-02-21T00:05:12.082Z,3.57
2018-02-21T00:06:01.131Z,3.55
2018-02-21T00:06:50.178Z,3.53
2018-02-21T00:07:39.219Z,3.59
2018-02-21T00:08:28.271Z,3.57
2018-02-21T00:09:17.327Z,3.49
2018-02-21T00:10:06.371Z,3.43
2018-02-21T00:10:55.814Z,3.42
2018-02-21T00:11:44.848Z,3.37
2018-02-21T00:12:33.900Z,3.35
2018-02-21T00:13:22.953Z,3.38
2018-02-21T00:14:11.999Z,3.36
2018-02-21T00:15:01.038Z,3.36
2018-02-21T00:15:50.107Z,3.29
2018-02-21T00:16:39.655Z,3.27
2018-02-21T00:17:28.704Z,3.29
2018-02-21T00:18:17.762Z,3.30
2018-02-21T00:19:06.841Z,3.38
2018-02-21T00:19:56.098Z,3.40
2018-02-21T00:20:45.159Z,3.42
2018-02-21T00:21:34.277Z,3.39
2018-02-21T00:22:23.329Z,3.44
2018-02-21T00:23:12.405Z,3.43
2018-02-21T00:24:01.485Z,3.41
2018-02-21T00:24:50.529Z,3.46
2018-02-21T00:25:39.593Z,3.42
2018-02-21T00:26:28.651Z,3.45
2018-02-21T00:27:17.827Z,3.46
2018-02-21T00:28:06.886Z,3.48
2018-02-21T00:28:55.948Z,3.46
2018-02-21T00:29:45.001Z,3.44
2018-02-21T00:30:34.053Z,3.43
2018-02-21T00:31:23.104Z,3.44
2018-02-21T00:32:12.163Z,3.43
2018-02-21T00:33:01.239Z,3.44
2018-02-21T00:33:50.276Z,3.44
2018-02-21T00:34:39.325Z,3.44
2018-02-21T00:35:28.364Z,3.40
2018-02-21T00:36:17.416Z,3.39
2018-02-21T00:37:06.474Z,3.43
2018-02-21T00:37:55.520Z,3.43
2018-02-21T00:38:44.609Z,3.32
2018-02-21T00:39:33.668Z,3.27
2018-02-21T00:40:22.730Z,3.27
2018-02-21T00:41:11.766Z,3.33
2018-02-21T00:42:00.830Z,3.37
2018-02-21T00:42:49.879Z,3.37
2018-02-21T00:43:39.131Z,3.36
2018-02-21T00:44:28.265Z,3.38
2018-02-21T00:45:17.299Z,3.39
2018-02-21T00:46:06.333Z,3.43
2018-02-21T00:46:55.375Z,3.39
2018-02-21T00:47:44.430Z,3.43
2018-02-21T00:48:33.484Z,3.43
2018-02-21T00:49:22.530Z,3.37
2018-02-21T00:50:11.606Z,3.37
2018-02-21T00:51:00.664Z,3.40
2018-02-21T00:51:49.717Z,3.37
2018-02-21T00:52:38.769Z,3.36
2018-02-21T00:53:27.812Z,3.34
2018-02-21T00:54:16.867Z,3.29
2018-02-21T00:55:05.930Z,3.27
2018-02-21T00:55:55.050Z,3.29
2018-02-21T00:56:44.125Z,3.11
2018-02-21T00:57:33.158Z,2.89
2018-02-21T00:58:22.470Z,2.60
2018-02-21T00:59:11.545Z,2.52
2018-02-21T01:00:00.603Z,2.38
2018-02-21T01:00:49.674Z,2.35
2018-02-21T01:01:38.955Z,2.30
2018-02-21T01:02:28.036Z,2.21
2018-02-21T01:03:17.083Z,2.35
2018-02-21T01:04:06.202Z,2.41
2018-02-21T01:04:55.278Z,2.48
2018-02-21T01:05:44.338Z,2.44
2018-02-21T01:06:33.436Z,2.41
2018-02-21T01:07:22.485Z,2.34
2018-02-21T01:08:11.535Z,2.29
2018-02-21T01:09:00.610Z,2.30
2018-02-21T01:09:49.693Z,2.38
2018-02-21T01:10:38.747Z,2.33
2018-02-21T01:11:27.789Z,2.29
2018-02-21T01:12:16.826Z,2.35
2018-02-21T01:13:05.859Z,2.40
2018-02-21T01:13:54.934Z,2.46
2018-02-21T01:14:44.067Z,2.49
2018-02-21T01:15:33.102Z,2.55
2018-02-21T01:16:22.149Z,2.62
2018-02-21T01:17:11.192Z,2.64
2018-02-21T01:18:00.231Z,2.73
2018-02-21T01:18:49.275Z,2.78
2018-02-21T01:19:38.332Z,2.77
2018-02-21T01:20:27.602Z,2.77
2018-02-21T01:21:16.658Z,2.78
2018-02-21T01:22:05.769Z,2.80
2018-02-21T01:22:54.822Z,2.72
2018-02-21T01:23:43.881Z,2.60
2018-02-21T01:24:32.967Z,2.57
2018-02-21T01:25:22.017Z,2.44
2018-02-21T01:26:11.077Z,2.27
2018-02-21T01:27:00.141Z,2.16
2018-02-21T01:27:49.188Z,2.11
2018-02-21T01:28:38.249Z,2.15
2018-02-21T01:29:27.296Z,2.10
2018-02-21T01:30:16.473Z,2.14
2018-02-21T01:31:05.539Z,2.17
2018-02-21T01:31:54.613Z,2.14
2018-02-21T01:32:43.669Z,2.19
2018-02-21T01:33:32.716Z,2.18
2018-02-21T01:34:21.763Z,2.21
2018-02-21T01:35:10.807Z,2.25
2018-02-21T01:35:59.888Z,2.31
2018-02-21T01:36:48.924Z,2.28
2018-02-21T01:37:37.959Z,2.18
2018-02-21T01:38:26.995Z,2.07
2018-02-21T01:39:16.030Z,2.01
2018-02-21T01:40:05.075Z,1.97
2018-02-21T01:40:54.110Z,1.88
2018-02-21T01:41:43.191Z,1.87
2018-02-21T01:42:32.223Z,1.96
2018-02-21T01:43:21.293Z,1.88
2018-02-21T01:44:10.330Z,1.83
2018-02-21T01:44:59.366Z,1.77
2018-02-21T01:45:48.405Z,1.71
2018-02-21T01:46:37.438Z,1.82
2018-02-21T01:47:26.683Z,1.90
2018-02-21T01:48:15.728Z,1.87
2018-02-21T01:49:04.767Z,1.87
2018-02-21T01:49:53.816Z,1.89
2018-02-21T01:50:58.651Z,1.96
2018-02-21T01:51:47.704Z,2.09
2018-02-21T01:52:37.161Z,2.04
2018-02-21T01:53:26.261Z,2.10
2018-02-21T01:54:15.308Z,2.07
2018-02-21T01:55:04.368Z,2.16
2018-02-21T01:55:53.412Z,2.06
2018-02-21T01:56:42.447Z,1.99
2018-02-21T01:57:31.474Z,1.92
2018-02-21T01:58:20.524Z,1.73
2018-02-21T01:59:09.620Z,1.87
2018-02-21T01:59:58.688Z,1.99
2018-02-21T02:00:47.726Z,2.08
2018-02-21T02:01:36.780Z,2.04
2018-02-21T02:02:25.834Z,1.94
2018-02-21T02:03:14.896Z,1.97
2018-02-21T02:04:03.970Z,2.00
2018-02-21T02:04:53.084Z,2.15
2018-02-21T02:05:42.140Z,2.18
2018-02-21T02:06:31.247Z,2.17
2018-02-21T02:07:20.279Z,2.15
2018-02-21T02:08:09.324Z,2.19
2018-02-21T02:08:58.398Z,2.16
2018-02-21T02:09:47.448Z,2.15
2018-02-21T02:10:36.626Z,2.11
2018-02-21T02:11:25.688Z,2.15
2018-02-21T02:12:15.202Z,2.00
2018-02-21T02:13:04.248Z,1.94
2018-02-21T02:13:53.292Z,1.77
2018-02-21T02:14:42.370Z,1.67
2018-02-21T02:15:31.417Z,1.66
2018-02-21T02:16:20.459Z,1.56
2018-02-21T02:17:09.619Z,1.49
2018-02-21T02:17:58.693Z,1.42
2018-02-21T02:18:47.738Z,1.54
2018-02-21T02:19:36.799Z,1.62
2018-02-21T02:20:25.841Z,1.64
2018-02-21T02:21:14.899Z,1.61
2018-02-21T02:22:03.965Z,1.69
2018-02-21T02:22:53.103Z,1.74
2018-02-21T02:23:42.148Z,1.78
2018-02-21T02:24:31.186Z,1.82
2018-02-21T02:25:20.233Z,1.88
2018-02-21T02:26:09.284Z,1.97
2018-02-21T02:26:58.337Z,2.02
2018-02-21T02:27:47.396Z,2.03
2018-02-21T02:28:36.674Z,2.06
2018-02-21T02:29:25.718Z,2.08
2018-02-21T02:30:14.765Z,2.04
2018-02-21T02:31:03.821Z,2.02
2018-02-21T02:31:52.932Z,2.06
2018-02-21T02:32:42.002Z,2.09
2018-02-21T02:33:31.038Z,2.15
2018-02-21T02:34:20.075Z,2.13
2018-02-21T02:35:09.163Z,2.14
2018-02-21T02:35:58.203Z,2.12
2018-02-21T02:36:47.252Z,2.13
2018-02-21T02:37:36.304Z,2.13
2018-02-21T02:38:36.887Z,2.24
2018-02-21T02:39:37.572Z,2.21
2018-02-21T02:40:26.826Z,2.23
2018-02-21T02:41:15.872Z,2.34
2018-02-21T02:42:04.912Z,2.32
2018-02-21T02:42:54.001Z,2.27
2018-02-21T02:43:43.041Z,2.27
2018-02-21T02:44:32.106Z,2.22
2018-02-21T02:45:21.180Z,2.04
2018-02-21T02:46:10.264Z,2.03
2018-02-21T02:46:59.306Z,2.08
2018-02-21T02:47:48.349Z,2.06
2018-02-21T02:48:37.425Z,2.04
2018-02-21T02:49:26.485Z,2.12
2018-02-21T02:50:15.529Z,2.12
2018-02-21T02:51:04.576Z,2.13
2018-02-21T02:51:53.688Z,2.14
2018-02-21T02:52:42.773Z,2.16
2018-02-21T02:53:31.830Z,2.12
2018-02-21T02:54:20.897Z,2.07
2018-02-21T02:55:09.934Z,1.93
2018-02-21T02:55:58.975Z,1.99
2018-02-21T02:56:48.016Z,1.99
2018-02-21T02:57:37.152Z,1.92
2018-02-21T02:58:26.209Z,1.87
2018-02-21T02:59:15.260Z,1.76
2018-02-21T03:00:04.352Z,1.70
2018-02-21T03:00:53.406Z,1.60
2018-02-21T03:01:42.457Z,1.55
2018-02-21T03:02:31.514Z,1.49
2018-02-21T03:03:20.779Z,1.36
2018-02-21T03:04:09.829Z,1.28
2018-02-21T03:04:58.888Z,1.49
2018-02-21T03:05:47.941Z,1.49
2018-02-21T03:06:36.987Z,1.63
2018-02-21T03:07:26.070Z,1.78
2018-02-21T03:08:15.122Z,1.87
2018-02-21T03:09:04.252Z,1.88
2018-02-21T03:09:53.310Z,1.92
2018-02-21T03:10:42.371Z,1.95
2018-02-21T03:11:31.426Z,1.96
2018-02-21T03:12:20.466Z,1.94
2018-02-21T03:13:09.502Z,1.89
2018-02-21T03:13:58.591Z,1.88
2018-02-21T03:14:47.654Z,1.91
2018-02-21T03:15:36.690Z,1.92
2018-02-21T03:16:25.827Z,1.91
2018-02-21T03:17:14.873Z,1.93
2018-02-21T03:18:03.952Z,1.98
2018-02-21T03:18:53.008Z,2.11
2018-02-21T03:19:42.066Z,2.19
2018-02-21T03:20:31.117Z,2.20
2018-02-21T03:21:20.162Z,2.14
2018-02-21T03:22:09.662Z,2.09
2018-02-21T03:22:58.711Z,2.07
2018-02-21T03:23:47.756Z,2.04
2018-02-21T03:24:36.799Z,1.98
2018-02-21T03:25:25.837Z,1.97
2018-02-21T03:26:14.870Z,1.94
2018-02-21T03:27:03.981Z,1.94
2018-02-21T03:27:53.022Z,1.82
2018-02-21T03:28:42.070Z,1.73
2018-02-21T03:29:31.115Z,1.88
2018-02-21T03:30:20.148Z,1.81
2018-02-21T03:31:09.207Z,1.71
2018-02-21T03:31:58.365Z,1.65
2018-02-21T03:32:47.425Z,1.59
2018-02-21T03:33:36.466Z,1.52
2018-02-21T03:34:25.519Z,1.52
2018-02-21T03:35:14.570Z,1.41
2018-02-21T03:36:03.630Z,1.38
2018-02-21T03:36:52.685Z,1.42
2018-02-21T03:37:42.015Z,1.50
2018-02-21T03:38:31.067Z,1.54
2018-02-21T03:39:20.136Z,1.60
2018-02-21T03:40:09.194Z,1.68
2018-02-21T03:40:58.239Z,1.86
2018-02-21T03:41:47.287Z,1.85
2018-02-21T03:42:36.362Z,1.71
2018-02-21T03:43:25.398Z,1.74
2018-02-21T03:44:14.437Z,1.63
2018-02-21T03:45:03.484Z,1.66
2018-02-21T03:45:52.577Z,1.67
2018-02-21T03:46:41.621Z,1.66
2018-02-21T03:47:30.677Z,1.67
2018-02-21T03:48:19.836Z,1.76
2018-02-21T03:49:09.024Z,1.85
2018-02-21T03:49:58.083Z,1.84
2018-02-21T03:50:47.135Z,1.89
2018-02-21T03:51:36.208Z,1.88
2018-02-21T03:52:25.271Z,1.85
2018-02-21T03:53:14.323Z,1.87
2018-02-21T03:54:03.667Z,1.94
2018-02-21T03:54:52.725Z,2.00
2018-02-21T03:55:41.782Z,1.94
2018-02-21T03:56:30.836Z,1.86
2018-02-21T03:57:19.891Z,1.77
2018-02-21T03:58:08.931Z,1.75
2018-02-21T03:58:58.040Z,1.66
2018-02-21T03:59:47.079Z,1.69
2018-02-21T04:00:36.119Z,1.83
2018-02-21T04:01:25.164Z,1.87
2018-02-21T04:02:14.211Z,1.91
2018-02-21T04:03:03.255Z,1.95
2018-02-21T04:03:52.308Z,2.02
2018-02-21T04:04:41.413Z,2.05
2018-02-21T04:05:30.451Z,2.02
2018-02-21T04:06:19.485Z,2.03
2018-02-21T04:08:24.464Z,2.10
2018-02-21T04:09:13.503Z,2.03
2018-02-21T04:10:02.554Z,2.04
2018-02-21T04:10:51.609Z,2.01
2018-02-21T04:11:40.659Z,1.91
2018-02-21T04:12:29.735Z,1.88
2018-02-21T04:13:18.784Z,1.76
2018-02-21T04:14:07.818Z,1.71
2018-02-21T04:14:56.870Z,1.67
2018-02-21T04:15:45.917Z,1.74
2018-02-21T04:16:34.979Z,1.83
2018-02-21T04:17:24.298Z,1.80
2018-02-21T04:18:13.559Z,1.72
2018-02-21T04:19:02.625Z,1.65
2018-02-21T04:19:51.679Z,1.63
2018-02-21T04:20:43.944Z,1.53
2018-02-21T04:21:32.989Z,1.49
2018-02-21T04:22:22.080Z,1.45
2018-02-21T04:23:11.130Z,1.51
2018-02-21T04:24:00.161Z,1.49
2018-02-21T04:24:49.197Z,1.59
2018-02-21T04:25:38.242Z,1.64
2018-02-21T04:26:27.292Z,1.61
2018-02-21T04:27:16.341Z,1.66
2018-02-21T04:28:05.485Z,1.59
2018-02-21T04:28:54.533Z,1.55
2018-02-21T04:29:43.580Z,1.55
2018-02-21T04:30:32.645Z,1.52
2018-02-21T04:31:21.678Z,1.61
2018-02-21T04:32:10.740Z,1.63
2018-02-21T04:32:59.805Z,1.59
2018-02-21T04:33:48.873Z,1.58
2018-02-21T04:34:37.914Z,1.54
2018-02-21T04:35:26.961Z,1.53
2018-02-21T04:36:16.004Z,1.57
2018-02-21T04:37:05.059Z,1.62
2018-02-21T04:37:54.123Z,1.63
2018-02-21T04:38:43.207Z,1.59
2018-02-21T04:39:32.634Z,1.59
2018-02-21T04:40:21.746Z,1.53
2018-02-21T04:41:10.800Z,1.55
2018-02-21T04:41:59.892Z,1.58
2018-02-21T04:42:48.928Z,1.68
2018-02-21T04:43:38.014Z,1.59
2018-02-21T04:44:27.078Z,1.53
2018-02-21T04:45:16.126Z,1.51
2018-02-21T04:46:05.320Z,1.43
2018-02-21T04:46:54.377Z,1.39
2018-02-21T04:47:43.414Z,1.33
2018-02-21T04:48:32.476Z,1.35
2018-02-21T04:49:21.568Z,1.47
2018-02-21T04:50:10.588Z,1.43
2018-02-21T04:50:59.622Z,1.40
2018-02-21T04:51:48.714Z,1.44
2018-02-21T04:52:37.765Z,1.51
2018-02-21T04:53:27.636Z,1.57
2018-02-21T04:55:39.633Z,1.68
2018-02-21T04:56:48.536Z,1.63
2018-02-21T04:57:43.026Z,1.72
2018-02-21T04:58:49.886Z,1.72
2018-02-21T05:01:04.817Z,1.57
2018-02-21T05:01:53.886Z,1.68
2018-02-21T05:02:42.928Z,1.69
2018-02-21T05:03:31.976Z,1.77
2018-02-21T05:04:21.107Z,1.66
2018-02-21T05:05:10.142Z,1.65
2018-02-21T05:05:59.184Z,1.67
2018-02-21T05:06:48.263Z,1.62
2018-02-21T05:07:37.316Z,1.52
2018-02-21T05:08:26.373Z,1.51
2018-02-21T05:09:15.419Z,1.53
2018-02-21T05:10:04.507Z,1.40
2018-02-21T05:10:53.550Z,1.43
2018-02-21T05:11:42.607Z,1.50
2018-02-21T05:12:31.646Z,1.53
2018-02-21T05:13:20.758Z,1.55
2018-02-21T05:14:09.819Z,1.55
2018-02-21T05:14:58.865Z,1.47
2018-02-21T05:15:47.912Z,1.41
2018-02-21T05:16:36.997Z,1.45
2018-02-21T05:17:26.084Z,1.48
2018-02-21T05:18:17.507Z,1.49
2018-02-21T05:19:06.568Z,1.32
2018-02-21T05:19:55.611Z,1.29
2018-02-21T05:20:44.744Z,1.31
2018-02-21T05:21:33.774Z,1.39
2018-02-21T05:22:22.841Z,1.34
2018-02-21T05:23:11.996Z,1.36
2018-02-21T05:24:01.051Z,1.46
2018-02-21T05:24:50.130Z,1.55
2018-02-21T05:25:39.183Z,1.60
2018-02-21T05:26:28.233Z,1.62
2018-02-21T05:27:17.289Z,1.65
2018-02-21T05:28:06.343Z,1.53
2018-02-21T05:28:55.429Z,1.42
2018-02-21T05:29:44.498Z,1.41
2018-02-21T05:30:33.548Z,1.34
2018-02-21T05:31:22.610Z,1.40
2018-02-21T05:32:11.664Z,1.24
2018-02-21T05:33:00.720Z,1.17
2018-02-21T05:33:49.773Z,1.20
2018-02-21T05:34:39.130Z,1.20
2018-02-21T05:35:28.191Z,1.15
2018-02-21T05:36:17.268Z,1.16
2018-02-21T05:37:06.381Z,1.12
2018-02-21T05:37:55.416Z,1.05
2018-02-21T05:38:44.465Z,1.07
2018-02-21T05:39:33.520Z,1.08
2018-02-21T05:40:22.555Z,1.07
2018-02-21T05:41:11.767Z,1.11
2018-02-21T05:42:00.810Z,1.16
2018-02-21T05:42:49.841Z,1.15
2018-02-21T05:43:38.878Z,1.12
2018-02-21T05:44:27.927Z,1.07
2018-02-21T05:45:16.975Z,1.07
2018-02-21T05:46:06.036Z,1.16
2018-02-21T05:46:55.153Z,1.18
2018-02-21T05:47:44.206Z,1.14
2018-02-21T05:48:33.247Z,1.07
2018-02-21T05:49:22.289Z,1.02
2018-02-21T05:50:11.349Z,1.04
2018-02-21T05:51:00.417Z,1.13
2018-02-21T05:51:49.476Z,1.26
2018-02-21T05:52:39.054Z,1.34
2018-02-21T05:53:28.079Z,1.33
2018-02-21T05:54:17.136Z,1.42
2018-02-21T05:55:06.183Z,1.50
2018-02-21T05:55:55.251Z,1.56
2018-02-21T05:56:44.303Z,1.56
2018-02-21T05:57:33.365Z,1.60
2018-02-21T05:58:24.847Z,1.55
2018-02-21T05:59:13.900Z,1.61
2018-02-21T06:00:02.980Z,1.68
2018-02-21T06:00:52.035Z,1.64
2018-02-21T06:01:41.328Z,1.75
2018-02-21T06:02:30.414Z,1.73
2018-02-21T06:03:20.514Z,1.88
2018-02-21T06:04:09.576Z,1.92
2018-02-21T06:04:58.675Z,1.84
2018-02-21T06:05:47.781Z,1.95
2018-02-21T06:06:36.831Z,2.08
2018-02-21T06:07:25.914Z,2.09
2018-02-21T06:08:14.981Z,2.17
2018-02-21T06:09:04.069Z,2.20
2018-02-21T06:09:53.137Z,2.25
2018-02-21T06:10:42.204Z,2.31
2018-02-21T06:11:31.258Z,2.38
2018-02-21T06:12:20.312Z,2.42
2018-02-21T06:13:09.396Z,2.43
2018-02-21T06:13:58.445Z,2.48
2018-02-21T06:14:47.504Z,2.47
2018-02-21T06:15:36.559Z,2.51
2018-02-21T06:16:25.596Z,2.48
2018-02-21T06:17:15.134Z,2.44
2018-02-21T06:18:04.184Z,2.46
2018-02-21T06:18:53.462Z,2.46
2018-02-21T06:19:42.510Z,2.47
2018-02-21T06:20:31.561Z,2.46
2018-02-21T06:21:20.610Z,2.46
2018-02-21T06:22:09.682Z,2.51
2018-02-21T06:22:58.731Z,2.54
2018-02-21T06:23:47.798Z,2.49
2018-02-21T06:24:36.873Z,2.44
2018-02-21T06:25:25.932Z,2.50
2018-02-21T06:26:14.972Z,2.49
2018-02-21T06:27:04.032Z,2.21
2018-02-21T06:27:53.081Z,2.18
2018-02-21T06:28:42.125Z,2.16
2018-02-21T06:29:31.997Z,2.16
2018-02-21T06:30:22.111Z,2.24
2018-02-21T06:31:11.156Z,2.30
2018-02-21T06:32:00.200Z,2.39
2018-02-21T06:32:49.281Z,2.47
2018-02-21T06:33:38.350Z,2.51
2018-02-21T06:34:27.586Z,2.52
2018-02-21T06:35:16.692Z,2.54
2018-02-21T06:36:05.758Z,2.58
2018-02-21T06:36:54.824Z,2.45
2018-02-21T06:37:43.889Z,2.49
2018-02-21T06:38:33.011Z,2.49
2018-02-21T06:39:22.072Z,2.53
2018-02-21T06:40:11.165Z,2.63
2018-02-21T06:41:00.228Z,2.42
2018-02-21T06:41:49.293Z,2.33
2018-02-21T06:42:38.340Z,2.48
2018-02-21T06:43:27.402Z,2.51
2018-02-21T06:44:16.455Z,2.44
2018-02-21T06:45:05.509Z,2.36
2018-02-21T06:45:54.601Z,2.49
2018-02-21T06:46:43.664Z,2.48
2018-02-21T06:47:35.794Z,2.20
2018-02-21T06:48:24.851Z,2.17
2018-02-21T06:49:13.905Z,2.41
2018-02-21T06:50:02.999Z,2.47
2018-02-21T06:50:52.055Z,2.51
2018-02-21T06:51:44.234Z,2.65
2018-02-21T06:52:33.299Z,2.75
2018-02-21T06:53:22.374Z,2.79
2018-02-21T06:54:11.440Z,2.80
2018-02-21T06:55:00.509Z,2.76
2018-02-21T06:55:49.555Z,2.81
2018-02-21T06:56:38.603Z,2.69
2018-02-21T06:57:27.714Z,2.79
2018-02-21T06:58:16.790Z,2.87
2018-02-21T06:59:05.861Z,2.92
2018-02-21T06:59:57.642Z,3.01
2018-02-21T07:00:46.762Z,3.01
2018-02-21T07:01:35.839Z,3.09
2018-02-21T07:02:34.762Z,3.19
2018-02-21T07:03:23.845Z,3.28
2018-02-21T07:04:12.909Z,3.31
2018-02-21T07:05:01.994Z,3.37
2018-02-21T07:05:51.085Z,3.41
2018-02-21T07:06:40.167Z,3.49
2018-02-21T07:07:29.225Z,3.50
2018-02-21T07:08:18.275Z,3.55
2018-02-21T07:09:07.338Z,3.55
2018-02-21T07:09:56.602Z,3.59
2018-02-21T07:10:45.660Z,3.42
2018-02-21T07:11:34.953Z,3.38
2018-02-21T07:12:24.014Z,3.43
2018-02-21T07:13:13.073Z,3.26
2018-02-21T07:14:02.119Z,3.26
2018-02-21T07:14:51.152Z,3.24
2018-02-21T07:15:40.223Z,3.36
2018-02-21T07:16:29.269Z,3.44
2018-02-21T07:17:18.336Z,3.49
2018-02-21T07:18:07.397Z,3.55
2018-02-21T07:18:56.449Z,3.61
2018-02-21T07:19:45.509Z,3.69
2018-02-21T07:20:34.704Z,3.80
2018-02-21T07:21:23.773Z,3.79
2018-02-21T07:22:12.830Z,3.61
2018-02-21T07:23:01.893Z,3.65
2018-02-21T07:23:50.946Z,3.74
2018-02-21T07:24:39.994Z,3.78
2018-02-21T07:25:29.034Z,3.84
2018-02-21T07:26:18.138Z,3.88
2018-02-21T07:27:07.206Z,3.77
2018-02-21T07:27:56.258Z,3.80
2018-02-21T07:28:45.322Z,3.76
2018-02-21T07:29:34.370Z,3.76
2018-02-21T07:30:23.440Z,3.78
2018-02-21T07:31:12.500Z,3.84
2018-02-21T07:32:01.589Z,3.83
2018-02-21T07:32:50.649Z,3.73
2018-02-21T07:33:39.713Z,3.66
2018-02-21T07:34:28.769Z,3.68
2018-02-21T07:35:17.814Z,3.73
2018-02-21T07:36:06.861Z,3.76
2018-02-21T07:36:55.912Z,3.69
2018-02-21T07:37:46.792Z,3.71
2018-02-21T07:38:35.860Z,3.75
2018-02-21T07:39:24.905Z,3.81
2018-02-21T07:40:13.958Z,3.87
2018-02-21T07:41:03.002Z,3.92
2018-02-21T07:41:52.056Z,3.97
2018-02-21T07:42:41.106Z,3.78
2018-02-21T07:43:31.183Z,3.35
2018-02-21T07:44:20.230Z,3.42
2018-02-21T07:45:09.374Z,3.51
2018-02-21T07:45:58.448Z,3.64
2018-02-21T07:46:47.510Z,3.65
2018-02-21T07:47:36.662Z,3.77
2018-02-21T07:48:25.715Z,3.80
2018-02-21T07:49:14.770Z,3.90
2018-02-21T07:50:03.877Z,3.93
2018-02-21T07:50:52.993Z,4.05
2018-02-21T07:51:42.051Z,4.11
2018-02-21T07:52:31.091Z,4.21
2018-02-21T07:53:20.128Z,4.25
2018-02-21T07:54:09.186Z,4.23
2018-02-21T07:54:58.240Z,4.29
2018-02-21T07:55:47.288Z,4.33
2018-02-21T07:56:36.390Z,4.38
2018-02-21T07:57:25.445Z,4.45
2018-02-21T07:58:14.520Z,4.50
2018-02-21T07:59:03.581Z,4.54
2018-02-21T07:59:52.736Z,4.43
2018-02-21T08:00:41.792Z,4.58
2018-02-21T08:01:30.969Z,4.65
2018-02-21T08:02:20.032Z,4.64
2018-02-21T08:03:09.072Z,4.68
2018-02-21T08:03:58.120Z,4.74
2018-02-21T08:04:47.337Z,4.78
2018-02-21T08:05:36.388Z,4.78
2018-02-21T08:06:25.449Z,4.77
2018-02-21T08:07:14.534Z,4.74
2018-02-21T08:08:03.610Z,4.72
2018-02-21T08:08:52.669Z,4.74
2018-02-21T08:09:41.721Z,4.70
2018-02-21T08:10:30.767Z,4.72
2018-02-21T08:11:19.832Z,4.75
2018-02-21T08:12:08.883Z,4.75
2018-02-21T08:12:57.977Z,4.81
2018-02-21T08:13:47.042Z,4.80
2018-02-21T08:14:36.113Z,4.83
2018-02-21T08:15:25.168Z,4.87
2018-02-21T08:16:14.221Z,4.89
2018-02-21T08:17:03.289Z,4.84
2018-02-21T08:17:52.329Z,4.85
2018-02-21T08:18:41.600Z,4.85
2018-02-21T08:19:30.651Z,4.80
2018-02-21T08:20:19.743Z,4.66
2018-02-21T08:21:08.793Z,4.67
2018-02-21T08:21:57.827Z,4.80
2018-02-21T08:22:46.915Z,4.83
2018-02-21T08:23:35.956Z,4.69
2018-02-21T08:24:25.012Z,4.41
2018-02-21T08:25:14.047Z,4.58
2018-02-21T08:26:03.155Z,4.52
2018-02-21T08:26:52.195Z,4.42
2018-02-21T08:27:41.244Z,4.49
2018-02-21T08:28:30.326Z,4.65
2018-02-21T08:29:19.401Z,4.76
2018-02-21T08:30:08.439Z,4.90
2018-02-21T08:30:57.608Z,5.02
2018-02-21T08:31:46.675Z,5.12
2018-02-21T08:32:35.728Z,5.27
2018-02-21T08:33:24.781Z,5.39
2018-02-21T08:34:13.853Z,5.43
2018-02-21T08:35:02.935Z,5.49
2018-02-21T08:35:52.001Z,5.68
2018-02-21T08:36:41.086Z,5.72
2018-02-21T08:37:30.146Z,5.83
2018-02-21T08:38:19.226Z,5.85
2018-02-21T08:39:08.283Z,5.82
2018-02-21T08:39:57.323Z,5.57
2018-02-21T08:40:46.372Z,5.66
2018-02-21T08:41:35.426Z,5.35
2018-02-21T08:42:24.713Z,5.29
2018-02-21T08:43:13.762Z,5.42
2018-02-21T08:44:02.816Z,5.54
2018-02-21T08:44:51.872Z,5.65
2018-02-21T08:45:40.914Z,5.81
2018-02-21T08:46:29.973Z,5.56
2018-02-21T08:47:19.029Z,5.47
2018-02-21T08:48:08.202Z,5.61
2018-02-21T08:48:57.259Z,5.66
2018-02-21T08:49:46.295Z,5.74
2018-02-21T08:50:35.393Z,5.84
2018-02-21T08:51:24.447Z,6.00
2018-02-21T08:52:13.521Z,6.10
2018-02-21T08:53:02.569Z,5.94
2018-02-21T08:53:51.692Z,5.73
2018-02-21T08:54:40.743Z,5.63
2018-02-21T08:55:29.789Z,5.26
2018-02-21T08:56:18.843Z,4.92
2018-02-21T08:57:07.892Z,4.73
2018-02-21T08:57:56.992Z,4.56
2018-02-21T08:58:46.016Z,4.53
2018-02-21T08:59:35.372Z,4.42
2018-02-21T09:00:25.325Z,4.52
2018-02-21T09:01:14.378Z,4.72
2018-02-21T09:02:03.424Z,4.66
2018-02-21T09:02:52.520Z,4.80
2018-02-21T09:03:41.574Z,4.97
2018-02-21T09:04:30.703Z,5.17
2018-02-21T09:05:19.762Z,5.26
2018-02-21T09:06:08.814Z,5.42
2018-02-21T09:06:57.865Z,5.56
2018-02-21T09:07:46.931Z,5.74
2018-02-21T09:08:36.018Z,5.89
2018-02-21T09:09:25.059Z,5.74
2018-02-21T09:10:14.144Z,5.83
2018-02-21T09:11:03.203Z,5.91
2018-02-21T09:11:52.243Z,6.02
2018-02-21T09:12:41.277Z,5.93
2018-02-21T09:13:30.335Z,5.79
2018-02-21T09:14:19.389Z,5.97
2018-02-21T09:15:08.433Z,5.99
2018-02-21T09:15:57.671Z,6.11
2018-02-21T09:16:46.793Z,6.11
2018-02-21T09:17:35.877Z,6.21
2018-02-21T09:18:24.930Z,6.23
2018-02-21T09:19:13.977Z,6.25
2018-02-21T09:20:03.042Z,5.91
2018-02-21T09:20:52.082Z,5.53
2018-02-21T09:21:41.225Z,5.56
2018-02-21T09:22:30.286Z,5.71
2018-02-21T09:23:19.383Z,5.78
2018-02-21T09:24:08.427Z,5.87
2018-02-21T09:24:57.464Z,5.71
2018-02-21T09:25:46.512Z,5.67
2018-02-21T09:26:35.555Z,5.73
2018-02-21T09:27:24.676Z,5.89
2018-02-21T09:28:13.709Z,5.99
2018-02-21T09:29:02.773Z,6.07
2018-02-21T09:29:51.821Z,6.13
2018-02-21T09:30:40.865Z,6.17
2018-02-21T09:31:29.931Z,6.24
2018-02-21T09:32:18.979Z,6.27
2018-02-21T09:33:08.293Z,6.37
2018-02-21T09:33:57.338Z,6.43
2018-02-21T09:34:46.397Z,6.51
2018-02-21T09:35:35.452Z,6.45
2018-02-21T09:36:24.505Z,6.24
2018-02-21T09:37:13.551Z,6.23
2018-02-21T09:38:02.605Z,6.28
2018-02-21T09:38:51.690Z,6.37
2018-02-21T09:39:40.760Z,6.45
2018-02-21T09:40:29.811Z,6.50
2018-02-21T09:41:19.224Z,6.55
2018-02-21T09:42:08.267Z,6.60
2018-02-21T09:42:57.314Z,6.61
2018-02-21T09:43:46.358Z,6.54
2018-02-21T09:44:35.397Z,6.64
2018-02-21T09:45:24.454Z,6.67
2018-02-21T09:46:13.506Z,6.81
2018-02-21T09:47:02.652Z,6.76
2018-02-21T09:47:51.696Z,6.78
2018-02-21T09:48:40.744Z,6.12
2018-02-21T09:49:29.785Z,6.03
2018-02-21T09:50:18.831Z,6.03
2018-02-21T09:51:07.883Z,6.21
2018-02-21T09:51:56.935Z,6.37
2018-02-21T09:52:47.516Z,6.42
2018-02-21T09:53:36.560Z,6.44
2018-02-21T09:54:25.613Z,6.51
2018-02-21T09:55:14.668Z,6.56
2018-02-21T09:56:03.784Z,6.68
2018-02-21T09:56:52.828Z,6.62
2018-02-21T09:57:41.882Z,6.65
2018-02-21T09:58:31.005Z,6.65
2018-02-21T09:59:20.102Z,6.66
2018-02-21T10:00:09.153Z,6.71
2018-02-21T10:00:58.279Z,6.77
2018-02-21T10:01:47.325Z,6.82
2018-02-21T10:02:36.366Z,6.85
2018-02-21T10:03:25.411Z,6.81
2018-02-21T10:04:14.490Z,6.57
2018-02-21T10:05:03.600Z,6.71
2018-02-21T10:05:52.643Z,6.68
2018-02-21T10:06:41.682Z,6.79
2018-02-21T10:07:30.821Z,6.89
2018-02-21T10:08:19.866Z,6.85
2018-02-21T10:09:08.938Z,6.91
2018-02-21T10:09:57.975Z,6.91
2018-02-21T10:10:47.040Z,6.87
2018-02-21T10:11:36.080Z,7.01
2018-02-21T10:12:25.135Z,7.09
2018-02-21T10:13:17.239Z,7.14
2018-02-21T10:14:06.300Z,6.47
2018-02-21T10:14:55.348Z,6.58
2018-02-21T10:15:44.400Z,6.70
2018-02-21T10:16:33.518Z,6.78
2018-02-21T10:17:22.624Z,6.44
2018-02-21T10:18:11.679Z,6.50
2018-02-21T10:19:00.783Z,6.55
2018-02-21T10:19:49.823Z,6.52
2018-02-21T10:20:38.872Z,6.48
2018-02-21T10:21:27.908Z,6.49
2018-02-21T10:22:16.939Z,6.59
2018-02-21T10:23:06.041Z,6.16
2018-02-21T10:23:55.087Z,5.79
2018-02-21T10:24:44.137Z,5.72
2018-02-21T10:25:33.172Z,5.63
2018-02-21T10:26:22.224Z,5.61
2018-02-21T10:27:11.273Z,5.80
2018-02-21T10:28:00.408Z,5.90
2018-02-21T10:28:49.439Z,6.05
2018-02-21T10:29:38.494Z,6.26
2018-02-21T10:30:27.549Z,6.49
2018-02-21T10:31:16.609Z,6.48
2018-02-21T10:32:05.689Z,6.50
2018-02-21T10:32:54.723Z,6.50
2018-02-21T10:33:43.982Z,6.62
2018-02-21T10:34:33.021Z,6.70
2018-02-21T10:35:22.061Z,6.83
2018-02-21T10:36:11.114Z,6.92
2018-02-21T10:37:00.211Z,7.01
2018-02-21T10:37:49.250Z,7.08
2018-02-21T10:38:38.289Z,6.70
2018-02-21T10:39:27.332Z,6.73
2018-02-21T10:40:16.387Z,6.52
2018-02-21T10:41:05.443Z,6.74
2018-02-21T10:41:54.506Z,6.84
2018-02-21T10:42:43.696Z,6.81
2018-02-21T10:43:32.730Z,6.54
2018-02-21T10:44:21.768Z,6.53
2018-02-21T10:45:10.922Z,6.70
2018-02-21T10:45:59.967Z,6.79
2018-02-21T10:46:49.009Z,6.89
2018-02-21T10:47:38.052Z,6.97
2018-02-21T10:48:27.090Z,7.02
2018-02-21T10:49:16.127Z,7.13
2018-02-21T10:50:05.165Z,7.13
2018-02-21T10:50:54.323Z,7.10
2018-02-21T10:51:43.395Z,7.13
2018-02-21T10:52:32.449Z,7.17
2018-02-21T10:53:21.480Z,7.19
2018-02-21T10:54:10.514Z,7.21
2018-02-21T10:54:59.570Z,7.30
2018-02-21T10:55:48.619Z,7.43
2018-02-21T10:56:37.708Z,7.33
2018-02-21T10:57:26.751Z,7.34
2018-02-21T10:58:15.822Z,7.43
2018-02-21T10:59:04.928Z,7.55